sensor_id;sensor_type;location;lat;lon;timestamp;P1;durP1;ratioP1;P2;durP2;ratioP2
2390;SDS011;22957;50.824;4.360;2022-12-08T00:01:07;27.57;;;15.07;;
2390;SDS011;22957;50.824;4.360;2022-12-08T00:03:38;22.77;;;15.00;;
2390;SDS011;22957;50.824;4.360;2022-12-08T00:06:12;26.50;;;15.83;;
2390;SDS011;22957;50.824;4.360;2022-12-08T00:09:25;20.20;;;11.83;;
2390;SDS011;22957;50.824;4.360;2022-12-08T00:12:01;25.57;;;14.20;;
2390;SDS011;22957;50.824;4.360;2022-12-08T00:14:46;20.67;;;13.63;;
2390;SDS011;22957;50.824;4.360;2022-12-08T00:17:14;22.53;;;13.30;;
2390;SDS011;22957;50.824;4.360;2022-12-08T00:19:42;21.77;;;14.03;;
2390;SDS011;22957;50.824;4.360;2022-12-08T00:22:11;24.20;;;14.50;;
2390;SDS011;22957;50.824;4.360;2022-12-08T00:24:38;22.50;;;13.60;;
2390;SDS011;22957;50.824;4.360;2022-12-08T00:27:09;23.57;;;15.10;;
2390;SDS011;22957;50.824;4.360;2022-12-08T00:29:36;19.73;;;12.33;;
2390;SDS011;22957;50.824;4.360;2022-12-08T00:32:04;21.40;;;11.83;;
2390;SDS011;22957;50.824;4.360;2022-12-08T00:34:30;22.43;;;11.90;;
2390;SDS011;22957;50.824;4.360;2022-12-08T00:36:56;22.50;;;14.23;;
2390;SDS011;22957;50.824;4.360;2022-12-08T00:39:22;24.70;;;13.23;;
2390;SDS011;22957;50.824;4.360;2022-12-08T00:41:48;21.13;;;13.70;;
2390;SDS011;22957;50.824;4.360;2022-12-08T00:44:32;20.60;;;13.47;;
2390;SDS011;22957;50.824;4.360;2022-12-08T00:46:58;22.97;;;13.00;;
2390;SDS011;22957;50.824;4.360;2022-12-08T00:49:23;25.33;;;13.93;;
2390;SDS011;22957;50.824;4.360;2022-12-08T00:51:49;22.63;;;15.80;;
2390;SDS011;22957;50.824;4.360;2022-12-08T00:54:15;25.87;;;15.90;;
2390;SDS011;22957;50.824;4.360;2022-12-08T00:56:41;32.70;;;16.27;;
2390;SDS011;22957;50.824;4.360;2022-12-08T00:59:06;27.63;;;16.00;;
2390;SDS011;22957;50.824;4.360;2022-12-08T01:01:32;28.90;;;13.67;;
2390;SDS011;22957;50.824;4.360;2022-12-08T01:04:05;35.80;;;14.30;;
2390;SDS011;22957;50.824;4.360;2022-12-08T01:06:33;27.30;;;15.17;;
2390;SDS011;22957;50.824;4.360;2022-12-08T01:09:00;23.93;;;13.43;;
2390;SDS011;22957;50.824;4.360;2022-12-08T01:11:26;24.03;;;13.57;;
2390;SDS011;22957;50.824;4.360;2022-12-08T01:13:52;30.03;;;15.07;;
2390;SDS011;22957;50.824;4.360;2022-12-08T01:16:22;31.33;;;15.30;;
2390;SDS011;22957;50.824;4.360;2022-12-08T01:18:50;26.60;;;14.90;;
2390;SDS011;22957;50.824;4.360;2022-12-08T01:21:16;28.50;;;16.70;;
2390;SDS011;22957;50.824;4.360;2022-12-08T01:23:42;29.07;;;14.53;;
2390;SDS011;22957;50.824;4.360;2022-12-08T01:26:09;31.23;;;15.30;;
2390;SDS011;22957;50.824;4.360;2022-12-08T01:28:36;29.17;;;15.53;;
2390;SDS011;22957;50.824;4.360;2022-12-08T01:31:02;33.80;;;16.67;;
2390;SDS011;22957;50.824;4.360;2022-12-08T01:33:28;24.83;;;14.40;;
2390;SDS011;22957;50.824;4.360;2022-12-08T01:35:54;29.80;;;14.50;;
2390;SDS011;22957;50.824;4.360;2022-12-08T01:38:20;25.60;;;14.60;;
2390;SDS011;22957;50.824;4.360;2022-12-08T01:40:46;25.60;;;14.90;;
2390;SDS011;22957;50.824;4.360;2022-12-08T01:43:17;28.77;;;16.53;;
2390;SDS011;22957;50.824;4.360;2022-12-08T01:45:44;31.93;;;15.93;;
2390;SDS011;22957;50.824;4.360;2022-12-08T01:48:12;30.43;;;16.50;;
2390;SDS011;22957;50.824;4.360;2022-12-08T01:50:45;30.77;;;16.23;;
2390;SDS011;22957;50.824;4.360;2022-12-08T01:53:16;30.77;;;16.93;;
2390;SDS011;22957;50.824;4.360;2022-12-08T01:55:48;26.07;;;15.43;;
2390;SDS011;22957;50.824;4.360;2022-12-08T01:58:28;30.60;;;16.90;;
2390;SDS011;22957;50.824;4.360;2022-12-08T02:01:03;35.10;;;17.17;;
2390;SDS011;22957;50.824;4.360;2022-12-08T02:03:30;24.77;;;15.93;;
2390;SDS011;22957;50.824;4.360;2022-12-08T02:06:01;33.07;;;17.23;;
2390;SDS011;22957;50.824;4.360;2022-12-08T02:08:27;35.07;;;19.27;;
2390;SDS011;22957;50.824;4.360;2022-12-08T02:10:53;32.57;;;15.73;;
2390;SDS011;22957;50.824;4.360;2022-12-08T02:13:19;36.73;;;19.10;;
2390;SDS011;22957;50.824;4.360;2022-12-08T02:15:59;27.80;;;15.43;;
2390;SDS011;22957;50.824;4.360;2022-12-08T02:29:03;29.30;;;16.63;;
2390;SDS011;22957;50.824;4.360;2022-12-08T02:42:15;32.27;;;16.57;;
2390;SDS011;22957;50.824;4.360;2022-12-08T02:44:53;33.13;;;16.83;;
2390;SDS011;22957;50.824;4.360;2022-12-08T02:47:23;31.93;;;17.40;;
2390;SDS011;22957;50.824;4.360;2022-12-08T02:49:50;36.10;;;18.63;;
2390;SDS011;22957;50.824;4.360;2022-12-08T02:55:25;30.77;;;16.47;;
2390;SDS011;22957;50.824;4.360;2022-12-08T03:00:17;32.30;;;16.73;;
2390;SDS011;22957;50.824;4.360;2022-12-08T03:08:19;33.43;;;15.80;;
2390;SDS011;22957;50.824;4.360;2022-12-08T03:14:00;32.13;;;15.73;;
2390;SDS011;22957;50.824;4.360;2022-12-08T03:16:29;29.53;;;15.60;;
2390;SDS011;22957;50.824;4.360;2022-12-08T03:21:50;32.83;;;16.30;;
2390;SDS011;22957;50.824;4.360;2022-12-08T03:24:24;34.03;;;16.27;;
2390;SDS011;22957;50.824;4.360;2022-12-08T03:26:57;28.33;;;15.47;;
2390;SDS011;22957;50.824;4.360;2022-12-08T03:29:29;30.73;;;14.73;;
2390;SDS011;22957;50.824;4.360;2022-12-08T03:31:57;40.90;;;17.60;;
2390;SDS011;22957;50.824;4.360;2022-12-08T03:34:36;30.30;;;15.63;;
2390;SDS011;22957;50.824;4.360;2022-12-08T03:37:06;32.40;;;16.93;;
2390;SDS011;22957;50.824;4.360;2022-12-08T03:39:31;26.60;;;13.37;;
2390;SDS011;22957;50.824;4.360;2022-12-08T03:41:57;23.33;;;14.00;;
2390;SDS011;22957;50.824;4.360;2022-12-08T03:44:24;26.80;;;14.13;;
2390;SDS011;22957;50.824;4.360;2022-12-08T03:46:49;26.23;;;14.63;;
2390;SDS011;22957;50.824;4.360;2022-12-08T03:49:15;25.33;;;13.47;;
2390;SDS011;22957;50.824;4.360;2022-12-08T03:51:41;28.97;;;15.10;;
2390;SDS011;22957;50.824;4.360;2022-12-08T03:54:06;28.30;;;14.60;;
2390;SDS011;22957;50.824;4.360;2022-12-08T03:56:33;28.00;;;13.87;;
2390;SDS011;22957;50.824;4.360;2022-12-08T03:59:01;28.53;;;15.60;;
2390;SDS011;22957;50.824;4.360;2022-12-08T04:01:27;26.23;;;15.43;;
2390;SDS011;22957;50.824;4.360;2022-12-08T04:03:52;25.30;;;14.10;;
2390;SDS011;22957;50.824;4.360;2022-12-08T04:06:19;26.07;;;14.13;;
2390;SDS011;22957;50.824;4.360;2022-12-08T04:08:45;23.97;;;14.17;;
2390;SDS011;22957;50.824;4.360;2022-12-08T04:11:11;26.40;;;14.57;;
2390;SDS011;22957;50.824;4.360;2022-12-08T04:13:38;27.90;;;14.13;;
2390;SDS011;22957;50.824;4.360;2022-12-08T04:16:05;27.40;;;13.80;;
2390;SDS011;22957;50.824;4.360;2022-12-08T04:18:31;22.10;;;13.33;;
2390;SDS011;22957;50.824;4.360;2022-12-08T04:20:58;33.37;;;14.43;;
2390;SDS011;22957;50.824;4.360;2022-12-08T04:23:23;26.13;;;14.97;;
2390;SDS011;22957;50.824;4.360;2022-12-08T04:25:52;23.43;;;13.63;;
2390;SDS011;22957;50.824;4.360;2022-12-08T04:28:18;26.67;;;14.20;;
2390;SDS011;22957;50.824;4.360;2022-12-08T04:30:44;26.10;;;13.93;;
2390;SDS011;22957;50.824;4.360;2022-12-08T04:33:09;29.30;;;14.33;;
2390;SDS011;22957;50.824;4.360;2022-12-08T04:35:35;26.07;;;12.67;;
2390;SDS011;22957;50.824;4.360;2022-12-08T04:38:01;25.37;;;14.03;;
2390;SDS011;22957;50.824;4.360;2022-12-08T04:40:27;27.00;;;13.80;;
2390;SDS011;22957;50.824;4.360;2022-12-08T04:42:52;23.13;;;12.47;;
2390;SDS011;22957;50.824;4.360;2022-12-08T04:45:18;32.33;;;14.20;;
2390;SDS011;22957;50.824;4.360;2022-12-08T04:47:44;25.87;;;14.00;;
2390;SDS011;22957;50.824;4.360;2022-12-08T04:50:10;25.30;;;14.03;;
2390;SDS011;22957;50.824;4.360;2022-12-08T04:52:37;22.17;;;13.60;;
2390;SDS011;22957;50.824;4.360;2022-12-08T04:55:03;20.07;;;12.77;;
2390;SDS011;22957;50.824;4.360;2022-12-08T04:57:29;23.90;;;13.80;;
2390;SDS011;22957;50.824;4.360;2022-12-08T04:59:55;31.17;;;14.30;;
2390;SDS011;22957;50.824;4.360;2022-12-08T05:02:20;24.53;;;13.27;;
2390;SDS011;22957;50.824;4.360;2022-12-08T05:04:46;26.07;;;14.23;;
2390;SDS011;22957;50.824;4.360;2022-12-08T05:07:12;31.47;;;15.53;;
2390;SDS011;22957;50.824;4.360;2022-12-08T05:09:37;26.00;;;12.50;;
2390;SDS011;22957;50.824;4.360;2022-12-08T05:12:03;21.23;;;12.20;;
2390;SDS011;22957;50.824;4.360;2022-12-08T05:14:29;25.30;;;14.70;;
2390;SDS011;22957;50.824;4.360;2022-12-08T05:16:55;23.30;;;11.83;;
2390;SDS011;22957;50.824;4.360;2022-12-08T05:19:21;28.00;;;14.07;;
2390;SDS011;22957;50.824;4.360;2022-12-08T05:21:47;27.23;;;11.83;;
2390;SDS011;22957;50.824;4.360;2022-12-08T05:24:13;28.70;;;12.77;;
2390;SDS011;22957;50.824;4.360;2022-12-08T05:26:39;25.37;;;13.20;;
2390;SDS011;22957;50.824;4.360;2022-12-08T05:29:04;30.10;;;12.50;;
2390;SDS011;22957;50.824;4.360;2022-12-08T05:31:30;27.27;;;13.10;;
2390;SDS011;22957;50.824;4.360;2022-12-08T05:33:56;25.90;;;12.13;;
2390;SDS011;22957;50.824;4.360;2022-12-08T05:36:21;23.83;;;12.57;;
2390;SDS011;22957;50.824;4.360;2022-12-08T05:38:47;22.70;;;11.87;;
2390;SDS011;22957;50.824;4.360;2022-12-08T05:41:14;23.90;;;12.07;;
2390;SDS011;22957;50.824;4.360;2022-12-08T05:43:41;25.13;;;11.57;;
2390;SDS011;22957;50.824;4.360;2022-12-08T05:46:07;18.70;;;11.40;;
2390;SDS011;22957;50.824;4.360;2022-12-08T05:48:33;34.90;;;13.17;;
2390;SDS011;22957;50.824;4.360;2022-12-08T05:51:00;24.70;;;11.13;;
2390;SDS011;22957;50.824;4.360;2022-12-08T05:53:25;20.57;;;9.70;;
2390;SDS011;22957;50.824;4.360;2022-12-08T05:55:52;22.67;;;11.60;;
2390;SDS011;22957;50.824;4.360;2022-12-08T05:58:19;23.03;;;12.13;;
2390;SDS011;22957;50.824;4.360;2022-12-08T06:00:46;20.57;;;10.30;;
2390;SDS011;22957;50.824;4.360;2022-12-08T06:03:14;24.90;;;12.20;;
2390;SDS011;22957;50.824;4.360;2022-12-08T06:05:42;24.40;;;12.90;;
2390;SDS011;22957;50.824;4.360;2022-12-08T06:08:09;24.80;;;11.50;;
2390;SDS011;22957;50.824;4.360;2022-12-08T06:10:36;28.43;;;11.83;;
2390;SDS011;22957;50.824;4.360;2022-12-08T06:13:03;23.23;;;10.43;;
2390;SDS011;22957;50.824;4.360;2022-12-08T06:15:28;22.40;;;11.57;;
2390;SDS011;22957;50.824;4.360;2022-12-08T06:17:54;17.27;;;9.87;;
2390;SDS011;22957;50.824;4.360;2022-12-08T06:20:21;19.83;;;10.67;;
2390;SDS011;22957;50.824;4.360;2022-12-08T06:22:47;25.00;;;10.20;;
2390;SDS011;22957;50.824;4.360;2022-12-08T06:25:13;18.10;;;9.80;;
2390;SDS011;22957;50.824;4.360;2022-12-08T06:27:38;19.73;;;10.97;;
2390;SDS011;22957;50.824;4.360;2022-12-08T06:30:04;27.00;;;10.53;;
2390;SDS011;22957;50.824;4.360;2022-12-08T06:32:30;23.10;;;9.63;;
2390;SDS011;22957;50.824;4.360;2022-12-08T06:34:56;15.77;;;10.13;;
2390;SDS011;22957;50.824;4.360;2022-12-08T06:37:22;24.20;;;10.57;;
2390;SDS011;22957;50.824;4.360;2022-12-08T06:39:47;28.57;;;11.33;;
2390;SDS011;22957;50.824;4.360;2022-12-08T06:42:13;20.23;;;10.53;;
2390;SDS011;22957;50.824;4.360;2022-12-08T06:44:57;20.23;;;10.60;;
2390;SDS011;22957;50.824;4.360;2022-12-08T06:47:24;18.20;;;8.67;;
2390;SDS011;22957;50.824;4.360;2022-12-08T06:49:50;22.07;;;9.60;;
2390;SDS011;22957;50.824;4.360;2022-12-08T06:52:15;18.43;;;10.17;;
2390;SDS011;22957;50.824;4.360;2022-12-08T06:54:41;15.43;;;8.60;;
2390;SDS011;22957;50.824;4.360;2022-12-08T06:57:07;29.57;;;12.30;;
2390;SDS011;22957;50.824;4.360;2022-12-08T06:59:32;22.43;;;10.93;;
2390;SDS011;22957;50.824;4.360;2022-12-08T07:01:59;18.53;;;10.43;;
2390;SDS011;22957;50.824;4.360;2022-12-08T07:04:25;15.50;;;8.50;;
2390;SDS011;22957;50.824;4.360;2022-12-08T07:06:53;18.63;;;8.57;;
2390;SDS011;22957;50.824;4.360;2022-12-08T07:09:19;14.47;;;7.97;;
2390;SDS011;22957;50.824;4.360;2022-12-08T07:11:45;17.03;;;10.13;;
2390;SDS011;22957;50.824;4.360;2022-12-08T07:14:11;19.33;;;9.30;;
2390;SDS011;22957;50.824;4.360;2022-12-08T07:16:37;19.00;;;8.53;;
2390;SDS011;22957;50.824;4.360;2022-12-08T07:19:03;16.30;;;10.07;;
2390;SDS011;22957;50.824;4.360;2022-12-08T07:21:29;14.43;;;8.70;;
2390;SDS011;22957;50.824;4.360;2022-12-08T07:23:55;21.20;;;10.17;;
2390;SDS011;22957;50.824;4.360;2022-12-08T07:26:22;22.50;;;10.37;;
2390;SDS011;22957;50.824;4.360;2022-12-08T07:28:48;20.63;;;9.93;;
2390;SDS011;22957;50.824;4.360;2022-12-08T07:31:20;20.07;;;10.17;;
2390;SDS011;22957;50.824;4.360;2022-12-08T07:33:47;22.80;;;9.70;;
2390;SDS011;22957;50.824;4.360;2022-12-08T07:36:14;21.03;;;9.20;;
2390;SDS011;22957;50.824;4.360;2022-12-08T07:38:41;19.53;;;10.57;;
2390;SDS011;22957;50.824;4.360;2022-12-08T07:41:17;23.20;;;10.53;;
2390;SDS011;22957;50.824;4.360;2022-12-08T07:43:44;25.40;;;10.50;;
2390;SDS011;22957;50.824;4.360;2022-12-08T07:46:11;22.00;;;11.40;;
2390;SDS011;22957;50.824;4.360;2022-12-08T07:48:38;22.30;;;10.60;;
2390;SDS011;22957;50.824;4.360;2022-12-08T07:51:04;20.83;;;11.10;;
2390;SDS011;22957;50.824;4.360;2022-12-08T07:53:30;20.10;;;10.87;;
2390;SDS011;22957;50.824;4.360;2022-12-08T07:55:56;21.93;;;8.90;;
2390;SDS011;22957;50.824;4.360;2022-12-08T07:58:22;28.80;;;11.40;;
2390;SDS011;22957;50.824;4.360;2022-12-08T08:00:48;25.80;;;11.13;;
2390;SDS011;22957;50.824;4.360;2022-12-08T08:03:14;27.30;;;10.80;;
2390;SDS011;22957;50.824;4.360;2022-12-08T08:05:40;20.63;;;10.43;;
2390;SDS011;22957;50.824;4.360;2022-12-08T08:08:08;29.00;;;11.50;;
2390;SDS011;22957;50.824;4.360;2022-12-08T08:10:34;19.17;;;10.07;;
2390;SDS011;22957;50.824;4.360;2022-12-08T08:13:00;17.87;;;8.90;;
2390;SDS011;22957;50.824;4.360;2022-12-08T08:15:26;23.30;;;10.97;;
2390;SDS011;22957;50.824;4.360;2022-12-08T08:17:52;20.13;;;9.87;;
2390;SDS011;22957;50.824;4.360;2022-12-08T08:20:19;21.93;;;10.03;;
2390;SDS011;22957;50.824;4.360;2022-12-08T08:22:47;26.10;;;11.30;;
2390;SDS011;22957;50.824;4.360;2022-12-08T08:25:14;22.03;;;10.40;;
2390;SDS011;22957;50.824;4.360;2022-12-08T08:27:41;20.20;;;9.43;;
2390;SDS011;22957;50.824;4.360;2022-12-08T08:30:08;28.00;;;12.20;;
2390;SDS011;22957;50.824;4.360;2022-12-08T08:32:35;24.10;;;10.30;;
2390;SDS011;22957;50.824;4.360;2022-12-08T08:35:01;22.60;;;10.87;;
2390;SDS011;22957;50.824;4.360;2022-12-08T08:37:27;32.67;;;13.50;;
2390;SDS011;22957;50.824;4.360;2022-12-08T08:39:53;25.03;;;10.87;;
2390;SDS011;22957;50.824;4.360;2022-12-08T08:42:19;22.37;;;10.80;;
2390;SDS011;22957;50.824;4.360;2022-12-08T08:44:45;32.70;;;11.27;;
2390;SDS011;22957;50.824;4.360;2022-12-08T08:47:10;19.97;;;10.63;;
2390;SDS011;22957;50.824;4.360;2022-12-08T08:49:36;25.10;;;12.37;;
2390;SDS011;22957;50.824;4.360;2022-12-08T08:52:03;24.90;;;11.33;;
2390;SDS011;22957;50.824;4.360;2022-12-08T08:54:29;24.50;;;10.63;;
2390;SDS011;22957;50.824;4.360;2022-12-08T08:56:56;20.73;;;10.30;;
2390;SDS011;22957;50.824;4.360;2022-12-08T08:59:22;27.27;;;12.23;;
2390;SDS011;22957;50.824;4.360;2022-12-08T09:01:48;28.77;;;12.70;;
2390;SDS011;22957;50.824;4.360;2022-12-08T09:04:14;25.07;;;11.67;;
2390;SDS011;22957;50.824;4.360;2022-12-08T09:06:40;25.60;;;12.10;;
2390;SDS011;22957;50.824;4.360;2022-12-08T09:09:09;27.23;;;11.03;;
2390;SDS011;22957;50.824;4.360;2022-12-08T09:11:35;21.90;;;11.43;;
2390;SDS011;22957;50.824;4.360;2022-12-08T09:14:01;25.43;;;11.40;;
2390;SDS011;22957;50.824;4.360;2022-12-08T09:16:27;28.20;;;11.70;;
2390;SDS011;22957;50.824;4.360;2022-12-08T09:18:53;20.33;;;11.83;;
2390;SDS011;22957;50.824;4.360;2022-12-08T09:21:20;26.97;;;10.87;;
2390;SDS011;22957;50.824;4.360;2022-12-08T09:23:48;21.90;;;10.63;;
2390;SDS011;22957;50.824;4.360;2022-12-08T09:26:15;24.33;;;10.40;;
2390;SDS011;22957;50.824;4.360;2022-12-08T09:28:41;22.67;;;10.87;;
2390;SDS011;22957;50.824;4.360;2022-12-08T09:31:11;25.10;;;11.50;;
2390;SDS011;22957;50.824;4.360;2022-12-08T09:33:37;20.30;;;10.67;;
2390;SDS011;22957;50.824;4.360;2022-12-08T09:36:08;21.63;;;10.47;;
2390;SDS011;22957;50.824;4.360;2022-12-08T09:38:34;20.63;;;10.20;;
2390;SDS011;22957;50.824;4.360;2022-12-08T09:41:02;26.50;;;11.07;;
2390;SDS011;22957;50.824;4.360;2022-12-08T09:46:21;26.27;;;10.87;;
2390;SDS011;22957;50.824;4.360;2022-12-08T09:48:54;24.63;;;11.50;;
2390;SDS011;22957;50.824;4.360;2022-12-08T09:51:23;21.33;;;10.13;;
2390;SDS011;22957;50.824;4.360;2022-12-08T09:53:54;25.20;;;10.73;;
2390;SDS011;22957;50.824;4.360;2022-12-08T09:56:24;23.13;;;10.10;;
2390;SDS011;22957;50.824;4.360;2022-12-08T10:01:33;19.63;;;11.13;;
2390;SDS011;22957;50.824;4.360;2022-12-08T10:06:48;20.93;;;9.33;;
2390;SDS011;22957;50.824;4.360;2022-12-08T10:09:27;25.73;;;12.70;;
2390;SDS011;22957;50.824;4.360;2022-12-08T10:14:54;21.93;;;9.20;;
2390;SDS011;22957;50.824;4.360;2022-12-08T10:17:46;22.20;;;9.73;;
2390;SDS011;22957;50.824;4.360;2022-12-08T10:20:16;21.00;;;11.03;;
2390;SDS011;22957;50.824;4.360;2022-12-08T10:25:49;24.07;;;11.57;;
2390;SDS011;22957;50.824;4.360;2022-12-08T10:28:23;23.37;;;10.83;;
2390;SDS011;22957;50.824;4.360;2022-12-08T10:30:49;23.33;;;10.20;;
2390;SDS011;22957;50.824;4.360;2022-12-08T10:33:15;16.57;;;9.43;;
2390;SDS011;22957;50.824;4.360;2022-12-08T10:35:54;23.37;;;10.20;;
2390;SDS011;22957;50.824;4.360;2022-12-08T10:38:37;25.47;;;10.47;;
2390;SDS011;22957;50.824;4.360;2022-12-08T10:41:05;22.27;;;9.87;;
2390;SDS011;22957;50.824;4.360;2022-12-08T10:43:36;20.40;;;9.90;;
2390;SDS011;22957;50.824;4.360;2022-12-08T10:46:24;20.73;;;10.53;;
2390;SDS011;22957;50.824;4.360;2022-12-08T10:48:52;23.90;;;11.17;;
2390;SDS011;22957;50.824;4.360;2022-12-08T10:54:01;28.20;;;11.10;;
2390;SDS011;22957;50.824;4.360;2022-12-08T10:56:30;22.27;;;10.47;;
2390;SDS011;22957;50.824;4.360;2022-12-08T10:59:16;24.33;;;10.90;;
2390;SDS011;22957;50.824;4.360;2022-12-08T11:01:49;16.63;;;8.77;;
2390;SDS011;22957;50.824;4.360;2022-12-08T11:06:58;25.70;;;10.67;;
2390;SDS011;22957;50.824;4.360;2022-12-08T11:09:29;21.97;;;9.17;;
2390;SDS011;22957;50.824;4.360;2022-12-08T11:12:17;30.23;;;10.30;;
2390;SDS011;22957;50.824;4.360;2022-12-08T11:17:25;24.27;;;11.00;;
2390;SDS011;22957;50.824;4.360;2022-12-08T11:22:37;24.73;;;10.63;;
2390;SDS011;22957;50.824;4.360;2022-12-08T11:27:41;19.17;;;8.70;;
2390;SDS011;22957;50.824;4.360;2022-12-08T11:30:15;20.33;;;10.27;;
2390;SDS011;22957;50.824;4.360;2022-12-08T11:32:53;18.77;;;8.80;;
2390;SDS011;22957;50.824;4.360;2022-12-08T11:35:27;19.47;;;9.80;;
2390;SDS011;22957;50.824;4.360;2022-12-08T11:38:09;22.33;;;9.23;;
2390;SDS011;22957;50.824;4.360;2022-12-08T11:40:40;15.50;;;9.60;;
2390;SDS011;22957;50.824;4.360;2022-12-08T11:43:17;18.03;;;8.33;;
2390;SDS011;22957;50.824;4.360;2022-12-08T11:45:59;17.63;;;8.60;;
2390;SDS011;22957;50.824;4.360;2022-12-08T11:48:30;22.87;;;9.73;;
2390;SDS011;22957;50.824;4.360;2022-12-08T11:51:11;17.97;;;8.87;;
2390;SDS011;22957;50.824;4.360;2022-12-08T11:53:52;20.10;;;10.50;;
2390;SDS011;22957;50.824;4.360;2022-12-08T11:56:40;22.40;;;9.67;;
2390;SDS011;22957;50.824;4.360;2022-12-08T11:59:14;15.90;;;8.17;;
2390;SDS011;22957;50.824;4.360;2022-12-08T12:02:02;18.23;;;8.70;;
2390;SDS011;22957;50.824;4.360;2022-12-08T12:04:32;17.87;;;8.63;;
2390;SDS011;22957;50.824;4.360;2022-12-08T12:07:50;22.90;;;10.13;;
2390;SDS011;22957;50.824;4.360;2022-12-08T12:13:17;15.30;;;7.90;;
2390;SDS011;22957;50.824;4.360;2022-12-08T12:18:52;19.47;;;8.87;;
2390;SDS011;22957;50.824;4.360;2022-12-08T12:21:44;19.13;;;8.97;;
2390;SDS011;22957;50.824;4.360;2022-12-08T12:24:26;21.30;;;9.47;;
2390;SDS011;22957;50.824;4.360;2022-12-08T12:29:35;18.90;;;9.50;;
2390;SDS011;22957;50.824;4.360;2022-12-08T12:32:03;19.73;;;8.30;;
2390;SDS011;22957;50.824;4.360;2022-12-08T12:34:32;19.43;;;9.10;;
2390;SDS011;22957;50.824;4.360;2022-12-08T12:42:43;17.10;;;8.50;;
2390;SDS011;22957;50.824;4.360;2022-12-08T12:47:50;20.10;;;9.20;;
2390;SDS011;22957;50.824;4.360;2022-12-08T12:53:01;17.03;;;9.00;;
2390;SDS011;22957;50.824;4.360;2022-12-08T13:03:41;16.00;;;8.70;;
2390;SDS011;22957;50.824;4.360;2022-12-08T13:06:09;17.07;;;8.17;;
2390;SDS011;22957;50.824;4.360;2022-12-08T13:08:48;15.87;;;8.23;;
2390;SDS011;22957;50.824;4.360;2022-12-08T13:11:16;18.87;;;9.77;;
2390;SDS011;22957;50.824;4.360;2022-12-08T13:13:58;18.60;;;8.13;;
2390;SDS011;22957;50.824;4.360;2022-12-08T13:16:31;15.73;;;6.80;;
2390;SDS011;22957;50.824;4.360;2022-12-08T13:19:03;20.23;;;8.47;;
2390;SDS011;22957;50.824;4.360;2022-12-08T13:21:36;19.47;;;8.73;;
2390;SDS011;22957;50.824;4.360;2022-12-08T13:26:43;17.17;;;9.13;;
2390;SDS011;22957;50.824;4.360;2022-12-08T13:29:14;15.83;;;7.07;;
2390;SDS011;22957;50.824;4.360;2022-12-08T13:34:38;14.43;;;7.30;;
2390;SDS011;22957;50.824;4.360;2022-12-08T13:39:50;14.50;;;7.80;;
2390;SDS011;22957;50.824;4.360;2022-12-08T13:42:32;16.20;;;7.23;;
2390;SDS011;22957;50.824;4.360;2022-12-08T13:47:41;16.23;;;7.57;;
2390;SDS011;22957;50.824;4.360;2022-12-08T13:50:13;12.73;;;6.80;;
2390;SDS011;22957;50.824;4.360;2022-12-08T13:55:35;13.47;;;6.73;;
2390;SDS011;22957;50.824;4.360;2022-12-08T13:58:53;13.23;;;6.90;;
2390;SDS011;22957;50.824;4.360;2022-12-08T14:03:47;12.40;;;6.90;;
2390;SDS011;22957;50.824;4.360;2022-12-08T14:06:28;9.20;;;5.73;;
2390;SDS011;22957;50.824;4.360;2022-12-08T14:09:03;10.00;;;6.70;;
2390;SDS011;22957;50.824;4.360;2022-12-08T14:11:59;8.30;;;5.63;;
2390;SDS011;22957;50.824;4.360;2022-12-08T14:14:28;15.07;;;5.33;;
2390;SDS011;22957;50.824;4.360;2022-12-08T14:17:08;10.50;;;6.60;;
2390;SDS011;22957;50.824;4.360;2022-12-08T14:19:37;20.73;;;6.83;;
2390;SDS011;22957;50.824;4.360;2022-12-08T14:24:45;12.37;;;5.70;;
2390;SDS011;22957;50.824;4.360;2022-12-08T14:27:16;16.03;;;7.00;;
2390;SDS011;22957;50.824;4.360;2022-12-08T14:29:48;17.47;;;7.87;;
2390;SDS011;22957;50.824;4.360;2022-12-08T14:32:33;14.40;;;6.90;;
2390;SDS011;22957;50.824;4.360;2022-12-08T14:37:33;11.83;;;6.70;;
2390;SDS011;22957;50.824;4.360;2022-12-08T14:40:06;12.00;;;7.20;;
2390;SDS011;22957;50.824;4.360;2022-12-08T14:48:26;16.60;;;6.47;;
2390;SDS011;22957;50.824;4.360;2022-12-08T14:53:51;17.97;;;6.60;;
2390;SDS011;22957;50.824;4.360;2022-12-08T15:02:33;20.17;;;7.57;;
2390;SDS011;22957;50.824;4.360;2022-12-08T15:05:09;12.63;;;6.50;;
2390;SDS011;22957;50.824;4.360;2022-12-08T15:07:44;13.10;;;5.70;;
2390;SDS011;22957;50.824;4.360;2022-12-08T15:20:46;11.87;;;6.33;;
2390;SDS011;22957;50.824;4.360;2022-12-08T15:25:55;12.57;;;6.20;;
2390;SDS011;22957;50.824;4.360;2022-12-08T15:28:23;10.13;;;6.27;;
2390;SDS011;22957;50.824;4.360;2022-12-08T15:30:51;11.27;;;6.47;;
2390;SDS011;22957;50.824;4.360;2022-12-08T15:33:19;15.20;;;6.20;;
2390;SDS011;22957;50.824;4.360;2022-12-08T15:35:49;12.90;;;6.20;;
2390;SDS011;22957;50.824;4.360;2022-12-08T15:38:20;13.10;;;6.80;;
2390;SDS011;22957;50.824;4.360;2022-12-08T15:40:51;11.77;;;7.27;;
2390;SDS011;22957;50.824;4.360;2022-12-08T15:43:18;10.77;;;6.20;;
2390;SDS011;22957;50.824;4.360;2022-12-08T15:45:44;12.60;;;6.77;;
2390;SDS011;22957;50.824;4.360;2022-12-08T15:48:21;13.17;;;6.60;;
2390;SDS011;22957;50.824;4.360;2022-12-08T15:50:49;9.60;;;6.07;;
2390;SDS011;22957;50.824;4.360;2022-12-08T15:53:15;9.80;;;5.70;;
2390;SDS011;22957;50.824;4.360;2022-12-08T15:55:42;13.27;;;6.60;;
2390;SDS011;22957;50.824;4.360;2022-12-08T15:58:22;11.87;;;6.93;;
2390;SDS011;22957;50.824;4.360;2022-12-08T16:00:49;11.53;;;5.73;;
2390;SDS011;22957;50.824;4.360;2022-12-08T16:03:26;9.90;;;6.17;;
2390;SDS011;22957;50.824;4.360;2022-12-08T16:05:54;11.53;;;6.10;;
2390;SDS011;22957;50.824;4.360;2022-12-08T16:08:21;7.57;;;5.20;;
2390;SDS011;22957;50.824;4.360;2022-12-08T16:10:47;8.80;;;4.77;;
2390;SDS011;22957;50.824;4.360;2022-12-08T16:13:17;3.97;;;3.10;;
2390;SDS011;22957;50.824;4.360;2022-12-08T16:16:02;6.73;;;3.70;;
2390;SDS011;22957;50.824;4.360;2022-12-08T16:18:33;6.67;;;3.80;;
2390;SDS011;22957;50.824;4.360;2022-12-08T16:21:03;10.50;;;3.40;;
2390;SDS011;22957;50.824;4.360;2022-12-08T16:23:30;5.80;;;3.43;;
2390;SDS011;22957;50.824;4.360;2022-12-08T16:25:56;5.33;;;3.50;;
2390;SDS011;22957;50.824;4.360;2022-12-08T16:28:24;11.80;;;3.53;;
2390;SDS011;22957;50.824;4.360;2022-12-08T16:30:50;5.03;;;3.70;;
2390;SDS011;22957;50.824;4.360;2022-12-08T16:33:16;6.30;;;3.70;;
2390;SDS011;22957;50.824;4.360;2022-12-08T16:35:42;8.60;;;4.20;;
2390;SDS011;22957;50.824;4.360;2022-12-08T16:38:10;8.90;;;3.50;;
2390;SDS011;22957;50.824;4.360;2022-12-08T16:40:39;4.10;;;3.20;;
2390;SDS011;22957;50.824;4.360;2022-12-08T16:43:25;7.17;;;3.87;;
2390;SDS011;22957;50.824;4.360;2022-12-08T16:45:50;4.03;;;3.43;;
2390;SDS011;22957;50.824;4.360;2022-12-08T16:48:16;8.40;;;4.37;;
2390;SDS011;22957;50.824;4.360;2022-12-08T16:50:43;4.40;;;3.63;;
2390;SDS011;22957;50.824;4.360;2022-12-08T16:53:09;9.90;;;5.53;;
2390;SDS011;22957;50.824;4.360;2022-12-08T16:55:37;5.37;;;3.80;;
2390;SDS011;22957;50.824;4.360;2022-12-08T16:58:04;6.87;;;5.33;;
2390;SDS011;22957;50.824;4.360;2022-12-08T17:00:30;5.60;;;4.10;;
2390;SDS011;22957;50.824;4.360;2022-12-08T17:03:02;9.40;;;6.13;;
2390;SDS011;22957;50.824;4.360;2022-12-08T17:05:28;6.80;;;5.40;;
2390;SDS011;22957;50.824;4.360;2022-12-08T17:07:54;5.03;;;4.47;;
2390;SDS011;22957;50.824;4.360;2022-12-08T17:10:26;7.33;;;4.73;;
2390;SDS011;22957;50.824;4.360;2022-12-08T17:12:54;8.10;;;4.90;;
2390;SDS011;22957;50.824;4.360;2022-12-08T17:15:26;9.20;;;5.90;;
2390;SDS011;22957;50.824;4.360;2022-12-08T17:17:52;8.43;;;6.67;;